createdAt,value
2018-03-04T00:00:47.877Z,15.83
2018-03-04T00:03:15.387Z,17.60
2018-03-04T00:05:42.937Z,18.23
2018-03-04T00:08:10.453Z,16.77
2018-03-04T00:10:38.741Z,17.97
2018-03-04T00:13:06.256Z,17.00
2018-03-04T00:15:33.797Z,17.83
2018-03-04T00:18:01.318Z,17.87
2018-03-04T00:20:28.859Z,19.50
2018-03-04T00:22:57.157Z,20.07
2018-03-04T00:25:24.706Z,18.03
2018-03-04T00:27:52.982Z,18.97
2018-03-04T00:30:21.292Z,18.87
2018-03-04T00:32:48.803Z,19.70
2018-03-04T00:35:16.327Z,18.67
2018-03-04T00:37:43.876Z,17.90
2018-03-04T00:40:11.391Z,18.67
2018-03-04T00:42:39.685Z,16.80
2018-03-04T00:45:07.960Z,18.07
2018-03-04T00:47:36.318Z,19.40
2018-03-04T00:50:03.840Z,19.57
2018-03-04T00:52:31.374Z,17.93
2018-03-04T00:54:58.893Z,18.77
2018-03-04T00:57:26.423Z,17.33
2018-03-04T00:59:53.935Z,18.53
2018-03-04T01:02:22.265Z,17.23
2018-03-04T01:04:49.786Z,16.83
2018-03-04T01:07:17.323Z,20.43
2018-03-04T01:09:45.619Z,17.03
2018-03-04T01:12:13.904Z,19.13
2018-03-04T01:14:41.433Z,16.60
2018-03-04T01:17:08.940Z,16.83
2018-03-04T01:19:36.473Z,19.63
2018-03-04T01:22:04.747Z,18.43
2018-03-04T01:24:33.039Z,16.40
2018-03-04T01:27:00.556Z,17.90
2018-03-04T01:29:28.088Z,17.70
2018-03-04T01:31:55.622Z,22.10
2018-03-04T01:34:23.175Z,17.03
2018-03-04T01:36:50.702Z,18.00
2018-03-04T01:39:18.223Z,17.40
2018-03-04T01:41:45.782Z,16.53
2018-03-04T01:44:13.348Z,21.07
2018-03-04T01:46:40.897Z,16.53
2018-03-04T01:49:08.408Z,17.53
2018-03-04T01:51:47.760Z,15.73
2018-03-04T01:54:16.052Z,17.80
2018-03-04T01:56:43.595Z,18.53
2018-03-04T01:59:11.879Z,17.80
2018-03-04T02:01:40.175Z,16.73
2018-03-04T02:04:07.683Z,21.13
2018-03-04T02:06:35.230Z,17.40
2018-03-04T02:09:02.745Z,19.70
2018-03-04T02:11:30.291Z,16.53
2018-03-04T02:13:58.584Z,19.43
2018-03-04T02:16:26.103Z,18.90
2018-03-04T02:18:53.672Z,17.93
2018-03-04T02:21:21.196Z,18.70
2018-03-04T02:23:48.724Z,16.27
2018-03-04T02:26:16.276Z,18.20
2018-03-04T02:28:44.621Z,16.57
2018-03-04T02:31:12.144Z,18.00
2018-03-04T02:33:39.687Z,17.30
2018-03-04T02:36:07.205Z,17.10
2018-03-04T02:38:34.750Z,16.73
2018-03-04T02:41:02.261Z,17.67
2018-03-04T02:43:29.798Z,16.10
2018-03-04T02:45:58.102Z,16.33
2018-03-04T02:48:25.666Z,15.83
2018-03-04T02:50:53.180Z,17.10
2018-03-04T02:53:20.709Z,16.13
2018-03-04T02:55:48.240Z,15.77
2018-03-04T02:58:15.770Z,16.70
2018-03-04T03:00:43.327Z,16.37
2018-03-04T03:03:10.841Z,17.07
2018-03-04T03:05:38.374Z,15.93
2018-03-04T03:08:06.678Z,17.30
2018-03-04T03:10:34.226Z,17.70
2018-03-04T03:13:01.750Z,18.17
2018-03-04T03:15:29.279Z,18.70
2018-03-04T03:17:56.800Z,14.43
2018-03-04T03:20:24.332Z,14.50
2018-03-04T03:22:51.846Z,15.10
2018-03-04T03:25:19.395Z,17.40
2018-03-04T03:27:46.914Z,16.60
2018-03-04T03:30:15.207Z,16.90
2018-03-04T03:32:43.510Z,15.73
2018-03-04T03:35:11.036Z,14.67
2018-03-04T03:37:39.339Z,15.70
2018-03-04T03:40:06.865Z,16.30
2018-03-04T03:42:34.398Z,15.70
2018-03-04T03:45:01.903Z,13.70
2018-03-04T03:47:30.196Z,19.20
2018-03-04T03:49:57.714Z,15.47
2018-03-04T03:52:25.240Z,15.20
2018-03-04T03:54:52.746Z,18.30
2018-03-04T03:57:21.071Z,15.83
2018-03-04T03:59:48.996Z,15.20
2018-03-04T04:02:17.274Z,15.70
2018-03-04T04:04:45.569Z,14.67
2018-03-04T04:07:13.843Z,16.77
2018-03-04T04:09:42.135Z,15.90
2018-03-04T04:12:09.665Z,16.07
2018-03-04T04:14:37.969Z,16.60
2018-03-04T04:17:05.492Z,15.63
2018-03-04T04:19:33.029Z,16.90
2018-03-04T04:22:00.540Z,14.67
2018-03-04T04:24:28.831Z,14.40
2018-03-04T04:26:56.339Z,14.03
2018-03-04T04:29:23.900Z,13.40
2018-03-04T04:31:51.408Z,14.90
2018-03-04T04:34:18.916Z,17.20
2018-03-04T04:36:46.444Z,14.10
2018-03-04T04:39:14.337Z,13.57
2018-03-04T04:41:41.865Z,15.67
2018-03-04T04:44:09.389Z,14.50
2018-03-04T04:46:36.939Z,15.93
2018-03-04T04:49:04.452Z,17.20
2018-03-04T04:51:31.995Z,18.90
2018-03-04T04:53:59.539Z,14.90
2018-03-04T04:56:27.861Z,15.77
2018-03-04T04:58:55.380Z,14.17
2018-03-04T05:01:23.664Z,14.83
2018-03-04T05:03:51.950Z,15.20
2018-03-04T05:06:20.338Z,17.83
2018-03-04T05:08:47.879Z,15.03
2018-03-04T05:11:15.404Z,14.67
2018-03-04T05:13:42.939Z,16.17
2018-03-04T05:16:10.461Z,16.23
2018-03-04T05:18:37.996Z,16.07
2018-03-04T05:21:05.513Z,15.13
2018-03-04T05:23:33.057Z,17.27
2018-03-04T05:26:00.567Z,14.57
2018-03-04T05:28:28.116Z,15.40
2018-03-04T05:30:55.626Z,14.90
2018-03-04T05:33:23.983Z,14.40
2018-03-04T05:35:52.400Z,15.40
2018-03-04T05:38:19.907Z,14.07
2018-03-04T05:40:47.439Z,16.67
2018-03-04T05:43:14.998Z,15.67
2018-03-04T05:45:42.527Z,14.97
2018-03-04T05:48:10.035Z,17.03
2018-03-04T05:50:37.563Z,14.80
2018-03-04T05:53:05.080Z,14.43
2018-03-04T05:55:33.427Z,15.90
2018-03-04T05:58:00.943Z,15.70
2018-03-04T06:00:28.486Z,15.80
2018-03-04T06:02:56.788Z,13.53
2018-03-04T06:05:24.332Z,14.47
2018-03-04T06:07:52.611Z,14.53
2018-03-04T06:10:20.921Z,13.90
2018-03-04T06:12:48.427Z,14.90
2018-03-04T06:15:16.724Z,18.43
2018-03-04T06:17:45.006Z,13.60
2018-03-04T06:20:12.535Z,13.70
2018-03-04T06:22:40.052Z,15.90
2018-03-04T06:25:07.604Z,13.17
2018-03-04T06:27:35.115Z,16.20
2018-03-04T06:30:02.780Z,14.37
2018-03-04T06:32:30.304Z,16.03
2018-03-04T06:34:57.820Z,12.83
2018-03-04T06:37:26.133Z,14.60
2018-03-04T06:39:53.644Z,12.97
2018-03-04T06:42:21.959Z,14.53
2018-03-04T06:44:49.482Z,14.20
2018-03-04T06:47:17.787Z,12.73
2018-03-04T06:49:45.317Z,14.43
2018-03-04T06:52:13.644Z,15.83
2018-03-04T06:54:42.244Z,13.63
2018-03-04T06:57:09.788Z,16.80
2018-03-04T06:59:37.295Z,14.47
2018-03-04T07:02:04.829Z,15.57
2018-03-04T07:04:32.363Z,15.23
2018-03-04T07:06:59.899Z,17.17
2018-03-04T07:09:28.182Z,14.50
2018-03-04T07:11:55.736Z,13.47
2018-03-04T07:14:24.045Z,14.27
2018-03-04T07:16:51.563Z,14.23
2018-03-04T07:19:19.873Z,13.60
2018-03-04T07:21:47.401Z,15.03
2018-03-04T07:24:15.711Z,14.17
2018-03-04T07:26:43.223Z,13.50
2018-03-04T07:29:10.755Z,14.63
2018-03-04T07:31:38.267Z,14.63
2018-03-04T07:34:06.556Z,12.97
2018-03-04T07:36:34.067Z,13.03
2018-03-04T07:39:01.614Z,15.50
2018-03-04T07:41:29.157Z,13.53
2018-03-04T07:43:58.050Z,15.33
2018-03-04T07:46:26.916Z,16.03
2018-03-04T07:48:55.806Z,14.50
2018-03-04T07:51:24.695Z,14.30
2018-03-04T07:53:53.556Z,12.77
2018-03-04T07:56:22.434Z,13.47
2018-03-04T07:58:51.304Z,17.17
2018-03-04T08:01:20.200Z,14.90
2018-03-04T08:03:49.086Z,14.60
2018-03-04T08:06:17.969Z,12.97
2018-03-04T08:08:46.835Z,14.27
2018-03-04T08:11:15.720Z,14.23
2018-03-04T08:13:44.589Z,13.27
2018-03-04T08:16:13.474Z,14.07
2018-03-04T08:18:42.342Z,15.03
2018-03-04T08:21:11.226Z,13.93
2018-03-04T08:23:40.088Z,14.37
2018-03-04T08:26:14.802Z,13.03
2018-03-04T08:28:43.688Z,14.03
2018-03-04T08:31:12.583Z,14.67
2018-03-04T08:33:41.451Z,13.90
2018-03-04T08:36:10.332Z,15.00
2018-03-04T08:38:39.211Z,13.17
2018-03-04T08:41:08.116Z,15.87
2018-03-04T08:43:36.985Z,14.17
2018-03-04T08:46:05.872Z,16.17
2018-03-04T08:48:34.749Z,14.80
2018-03-04T08:51:03.619Z,15.33
2018-03-04T08:53:32.514Z,15.93
2018-03-04T08:56:01.383Z,14.50
2018-03-04T08:58:30.280Z,14.60
2018-03-04T09:00:59.169Z,13.90
2018-03-04T09:03:28.078Z,14.77
2018-03-04T09:05:56.977Z,14.57
2018-03-04T09:08:25.865Z,14.00
2018-03-04T09:10:54.736Z,14.07
2018-03-04T09:13:23.623Z,14.13
2018-03-04T09:15:52.484Z,16.60
2018-03-04T09:18:21.377Z,13.27
2018-03-04T09:20:50.250Z,14.20
2018-03-04T09:23:19.160Z,13.10
2018-03-04T09:25:48.032Z,15.57
2018-03-04T09:28:16.891Z,14.93
2018-03-04T09:30:45.772Z,12.90
2018-03-04T09:33:14.637Z,13.30
2018-03-04T09:35:43.526Z,14.00
2018-03-04T09:38:12.392Z,13.20
2018-03-04T09:40:41.277Z,12.93
2018-03-04T09:43:10.131Z,14.50
2018-03-04T09:45:39.018Z,13.30
2018-03-04T09:48:07.883Z,15.47
2018-03-04T09:50:36.773Z,14.50
2018-03-04T09:53:05.635Z,14.17
2018-03-04T09:55:34.513Z,13.57
2018-03-04T09:58:03.387Z,14.20
2018-03-04T10:00:32.274Z,14.40
2018-03-04T10:03:01.139Z,14.97
2018-03-04T10:05:29.999Z,14.50
2018-03-04T10:07:58.879Z,13.30
2018-03-04T10:10:27.758Z,14.73
2018-03-04T10:12:56.632Z,14.20
2018-03-04T10:15:25.495Z,15.37
2018-03-04T10:17:54.378Z,15.17
2018-03-04T10:20:23.243Z,13.27
2018-03-04T10:22:52.135Z,13.90
2018-03-04T10:25:21.007Z,13.90
2018-03-04T10:27:49.891Z,14.53
2018-03-04T10:30:18.757Z,13.90
2018-03-04T10:32:47.642Z,13.70
2018-03-04T10:35:16.508Z,14.00
2018-03-04T10:37:45.800Z,14.23
2018-03-04T10:40:14.708Z,14.83
2018-03-04T10:42:43.586Z,15.10
2018-03-04T10:45:12.451Z,14.60
2018-03-04T10:47:41.315Z,14.63
2018-03-04T10:50:10.206Z,16.00
2018-03-04T10:52:39.080Z,16.60
2018-03-04T10:55:07.959Z,14.57
2018-03-04T10:57:36.814Z,15.40
2018-03-04T11:00:05.695Z,15.07
2018-03-04T11:02:38.354Z,15.90
2018-03-04T11:05:07.241Z,15.07
2018-03-04T11:07:36.109Z,15.73
2018-03-04T11:10:04.990Z,14.00
2018-03-04T11:12:33.862Z,14.70
2018-03-04T11:15:02.751Z,16.43
2018-03-04T11:17:31.636Z,15.13
2018-03-04T11:20:00.525Z,15.17
2018-03-04T11:22:29.387Z,13.90
2018-03-04T11:24:58.263Z,17.03
2018-03-04T11:27:27.127Z,16.43
2018-03-04T11:29:56.006Z,14.93
2018-03-04T11:32:24.886Z,16.30
2018-03-04T11:34:53.812Z,16.90
2018-03-04T11:37:22.685Z,15.03
2018-03-04T11:39:51.555Z,15.97
2018-03-04T11:42:20.435Z,14.60
2018-03-04T11:44:49.292Z,15.43
2018-03-04T11:47:18.171Z,15.07
2018-03-04T11:49:47.036Z,17.73
2018-03-04T11:52:15.911Z,16.30
2018-03-04T11:54:44.845Z,16.50
2018-03-04T11:57:13.740Z,17.37
2018-03-04T11:59:42.618Z,16.17
2018-03-04T12:02:11.496Z,16.20
2018-03-04T12:04:40.363Z,16.60
2018-03-04T12:07:09.241Z,16.53
2018-03-04T12:09:38.168Z,16.20
2018-03-04T12:12:07.030Z,17.40
2018-03-04T12:14:35.893Z,17.70
2018-03-04T12:17:04.780Z,15.90
2018-03-04T12:19:33.639Z,16.20
2018-03-04T12:22:02.528Z,17.50
2018-03-04T12:24:31.495Z,15.93
2018-03-04T12:27:00.384Z,16.20
2018-03-04T12:29:29.254Z,15.93
2018-03-04T12:31:58.123Z,16.20
2018-03-04T12:34:27.005Z,17.50
2018-03-04T12:36:55.869Z,16.90
2018-03-04T12:39:24.746Z,16.20
2018-03-04T12:41:53.610Z,17.30
2018-03-04T12:44:22.502Z,15.60
2018-03-04T12:46:51.432Z,16.17
2018-03-04T12:49:20.315Z,18.37
2018-03-04T12:51:49.179Z,17.13
2018-03-04T12:54:18.064Z,17.23
2018-03-04T12:56:46.929Z,17.10
2018-03-04T12:59:15.805Z,17.27
2018-03-04T13:01:44.683Z,18.37
2018-03-04T13:04:13.562Z,16.30
2018-03-04T13:06:42.430Z,15.83
2018-03-04T13:09:11.351Z,16.23
2018-03-04T13:11:40.236Z,17.00
2018-03-04T13:14:09.119Z,16.70
2018-03-04T13:16:37.998Z,17.60
2018-03-04T13:19:06.892Z,17.57
2018-03-04T13:21:35.829Z,17.33
2018-03-04T13:24:04.716Z,16.40
2018-03-04T13:26:33.574Z,18.47
2018-03-04T13:29:02.440Z,16.73
2018-03-04T13:31:31.329Z,15.73
2018-03-04T13:34:00.227Z,17.23
2018-03-04T13:36:29.135Z,16.23
2018-03-04T13:38:58.003Z,17.13
2018-03-04T13:41:26.892Z,17.87
2018-03-04T13:43:55.759Z,18.27
2018-03-04T13:46:24.713Z,17.37
2018-03-04T13:48:53.542Z,17.00
2018-03-04T13:51:22.429Z,18.20
2018-03-04T13:53:51.287Z,18.50
2018-03-04T13:56:20.162Z,17.60
2018-03-04T13:58:49.032Z,17.53
2018-03-04T14:01:17.934Z,16.73
2018-03-04T14:03:46.791Z,16.90
2018-03-04T14:06:15.683Z,16.60
2018-03-04T14:08:44.543Z,17.47
2018-03-04T14:11:13.427Z,17.00
2018-03-04T14:13:42.290Z,17.07
2018-03-04T14:16:11.188Z,17.67
2018-03-04T14:18:40.053Z,17.93
2018-03-04T14:21:08.927Z,18.53
2018-03-04T14:23:37.807Z,17.60
2018-03-04T14:26:06.684Z,18.43
2018-03-04T14:28:35.568Z,16.87
2018-03-04T14:31:04.444Z,18.17
2018-03-04T14:33:33.340Z,18.20
2018-03-04T14:36:02.211Z,17.47
2018-03-04T14:38:31.089Z,18.67
2018-03-04T14:40:59.950Z,17.87
2018-03-04T14:43:28.844Z,18.60
2018-03-04T14:45:57.713Z,18.23
2018-03-04T14:48:26.598Z,18.47
2018-03-04T14:50:55.463Z,19.13
2018-03-04T14:53:24.356Z,19.17
2018-03-04T14:55:53.223Z,17.07
2018-03-04T14:58:22.137Z,18.37
2018-03-04T15:00:50.999Z,18.83
2018-03-04T15:03:19.895Z,20.70
2018-03-04T15:05:48.777Z,17.83
2018-03-04T15:08:17.635Z,17.90
2018-03-04T15:10:46.527Z,20.67
2018-03-04T15:13:15.398Z,20.13
2018-03-04T15:15:44.281Z,20.27
2018-03-04T15:18:13.155Z,21.50
2018-03-04T15:20:42.074Z,20.37
2018-03-04T15:23:10.936Z,19.93
2018-03-04T15:25:39.823Z,21.80
2018-03-04T15:28:08.706Z,19.90
2018-03-04T15:30:37.583Z,21.30
2018-03-04T15:33:06.451Z,22.93
2018-03-04T15:35:35.342Z,21.47
2018-03-04T15:38:04.214Z,23.37
2018-03-04T15:40:33.097Z,22.73
2018-03-04T15:43:02.051Z,22.33
2018-03-04T15:45:30.958Z,23.67
2018-03-04T15:47:59.837Z,21.73
2018-03-04T15:50:28.702Z,20.87
2018-03-04T15:52:57.599Z,24.27
2018-03-04T15:55:26.503Z,23.13
2018-03-04T15:57:55.444Z,23.00
2018-03-04T16:00:24.301Z,23.93
2018-03-04T16:02:53.205Z,22.77
2018-03-04T16:05:22.087Z,20.80
2018-03-04T16:07:50.969Z,21.13
2018-03-04T16:10:19.839Z,25.67
2018-03-04T16:12:48.719Z,22.07
2018-03-04T16:15:17.589Z,22.80
2018-03-04T16:17:46.480Z,23.60
2018-03-04T16:20:15.350Z,23.27
2018-03-04T16:22:44.227Z,23.70
2018-03-04T16:25:13.095Z,23.60
2018-03-04T16:27:41.976Z,23.90
2018-03-04T16:30:10.853Z,21.80
2018-03-04T16:32:39.726Z,24.30
2018-03-04T16:35:09.529Z,25.03
2018-03-04T16:37:38.407Z,22.17
2018-03-04T16:40:07.271Z,24.17
2018-03-04T16:42:36.347Z,24.37
2018-03-04T16:45:05.208Z,24.43
2018-03-04T16:47:34.087Z,22.80
2018-03-04T16:50:02.964Z,25.63
2018-03-04T16:52:31.829Z,22.63
2018-03-04T16:55:00.723Z,24.30
2018-03-04T16:57:29.599Z,24.70
2018-03-04T16:59:58.496Z,25.60
2018-03-04T17:02:27.371Z,23.77
2018-03-04T17:04:56.247Z,23.33
2018-03-04T17:07:25.119Z,22.80
2018-03-04T17:09:54.018Z,23.30
2018-03-04T17:12:22.892Z,25.10
2018-03-04T17:14:51.767Z,23.80
2018-03-04T17:17:20.668Z,25.77
2018-03-04T17:19:49.581Z,24.73
2018-03-04T17:22:18.446Z,27.03
2018-03-04T17:24:47.328Z,24.77
2018-03-04T17:27:16.327Z,24.47
2018-03-04T17:29:45.192Z,24.53
2018-03-04T17:32:14.153Z,22.40
2018-03-04T17:34:42.979Z,23.73
2018-03-04T17:37:11.879Z,23.37
2018-03-04T17:39:40.763Z,24.27
2018-03-04T17:42:09.655Z,23.83
2018-03-04T17:44:38.519Z,25.73
2018-03-04T17:47:07.411Z,25.80
2018-03-04T17:49:36.306Z,26.30
2018-03-04T17:52:05.196Z,25.73
2018-03-04T17:54:34.061Z,23.60
2018-03-04T17:57:02.961Z,24.90
2018-03-04T17:59:31.830Z,25.07
2018-03-04T18:02:00.737Z,24.60
2018-03-04T18:04:29.619Z,24.53
2018-03-04T18:06:58.478Z,25.53
2018-03-04T18:09:27.364Z,23.60
2018-03-04T18:11:56.231Z,24.63
2018-03-04T18:14:25.119Z,26.17
2018-03-04T18:16:53.984Z,26.63
2018-03-04T18:19:22.867Z,25.10
2018-03-04T18:21:51.745Z,25.90
2018-03-04T18:24:20.627Z,25.20
2018-03-04T18:26:49.483Z,24.27
2018-03-04T18:29:18.371Z,25.97
2018-03-04T18:31:47.230Z,27.20
2018-03-04T18:34:16.241Z,29.70
2018-03-04T18:36:45.162Z,27.77
2018-03-04T18:39:14.062Z,24.73
2018-03-04T18:41:42.947Z,29.13
2018-03-04T18:44:11.810Z,28.60
2018-03-04T18:46:40.700Z,29.30
2018-03-04T18:49:09.568Z,28.60
2018-03-04T18:51:38.458Z,27.53
2018-03-04T18:54:07.311Z,27.40
2018-03-04T18:56:36.194Z,27.80
2018-03-04T18:59:05.060Z,27.87
2018-03-04T19:01:33.947Z,27.90
2018-03-04T19:04:02.815Z,26.07
2018-03-04T19:06:31.699Z,26.87
2018-03-04T19:09:00.577Z,27.73
2018-03-04T19:11:29.469Z,26.90
2018-03-04T19:13:58.348Z,26.83
2018-03-04T19:16:27.250Z,27.20
2018-03-04T19:18:56.686Z,27.40
2018-03-04T19:21:25.542Z,27.70
2018-03-04T19:23:54.430Z,27.23
2018-03-04T19:26:23.282Z,27.93
2018-03-04T19:28:52.165Z,28.43
2018-03-04T19:31:21.031Z,26.73
2018-03-04T19:33:49.921Z,25.97
2018-03-04T19:36:18.789Z,28.27
2018-03-04T19:38:47.668Z,26.97
2018-03-04T19:41:16.534Z,25.83
2018-03-04T19:43:45.457Z,28.03
2018-03-04T19:46:14.320Z,28.20
2018-03-04T19:48:43.183Z,27.83
2018-03-04T19:51:12.071Z,26.13
2018-03-04T19:53:40.951Z,26.40
2018-03-04T19:56:09.843Z,26.70
2018-03-04T19:58:38.702Z,26.73
2018-03-04T20:01:07.578Z,29.23
2018-03-04T20:03:36.530Z,25.70
2018-03-04T20:06:05.411Z,26.73
2018-03-04T20:08:34.271Z,27.33
2018-03-04T20:11:03.147Z,25.60
2018-03-04T20:13:32.012Z,27.13
2018-03-04T20:16:00.899Z,26.67
2018-03-04T20:18:29.759Z,25.80
2018-03-04T20:20:58.655Z,26.27
2018-03-04T20:23:27.523Z,26.30
2018-03-04T20:25:56.391Z,28.23
2018-03-04T20:28:25.273Z,26.33
2018-03-04T20:30:54.137Z,27.60
2018-03-04T20:33:23.010Z,26.07
2018-03-04T20:35:51.879Z,27.70
2018-03-04T20:38:20.776Z,26.17
2018-03-04T20:40:49.640Z,28.27
2018-03-04T20:43:18.518Z,27.37
2018-03-04T20:45:47.375Z,26.03
2018-03-04T20:48:16.268Z,26.33
2018-03-04T20:50:45.141Z,26.77
2018-03-04T20:53:14.042Z,25.70
2018-03-04T20:55:42.912Z,27.90
2018-03-04T20:58:11.770Z,27.03
2018-03-04T21:00:40.663Z,29.30
2018-03-04T21:03:09.526Z,30.03
2018-03-04T21:05:38.423Z,29.80
2018-03-04T21:08:07.285Z,30.97
2018-03-04T21:10:36.165Z,33.70
2018-03-04T21:13:05.032Z,30.40
2018-03-04T21:15:33.953Z,30.90
2018-03-04T21:18:02.811Z,30.90
2018-03-04T21:20:31.671Z,29.30
2018-03-04T21:23:00.561Z,31.30
2018-03-04T21:25:29.447Z,29.67
2018-03-04T21:27:58.323Z,32.10
2018-03-04T21:30:27.200Z,29.63
2018-03-04T21:32:56.187Z,31.13
2018-03-04T21:35:25.047Z,28.63
2018-03-04T21:37:53.960Z,29.20
2018-03-04T21:40:22.868Z,30.87
2018-03-04T21:42:51.758Z,28.87
2018-03-04T21:45:20.653Z,30.67
2018-03-04T21:47:49.530Z,31.27
2018-03-04T21:50:18.414Z,31.83
2018-03-04T21:52:47.272Z,30.00
2018-03-04T21:55:16.191Z,29.10
2018-03-04T21:57:45.055Z,27.60
2018-03-04T22:00:13.944Z,30.20
2018-03-04T22:02:42.805Z,31.93
2018-03-04T22:05:11.692Z,30.10
2018-03-04T22:07:40.557Z,30.87
2018-03-04T22:10:09.448Z,29.40
2018-03-04T22:15:13.668Z,31.33
2018-03-04T22:17:42.553Z,32.57
2018-03-04T22:20:11.428Z,33.00
2018-03-04T22:22:40.311Z,31.60
2018-03-04T22:25:09.188Z,34.93
2018-03-04T22:27:38.062Z,30.77
2018-03-04T22:30:06.929Z,31.23
2018-03-04T22:32:35.815Z,29.83
2018-03-04T22:35:04.680Z,34.70
2018-03-04T22:37:33.575Z,31.40
2018-03-04T22:40:02.436Z,31.47
2018-03-04T22:42:31.302Z,29.47
2018-03-04T22:45:00.182Z,29.50
2018-03-04T22:47:29.038Z,30.43
2018-03-04T22:49:57.919Z,31.90
2018-03-04T22:52:26.782Z,30.23
2018-03-04T22:54:55.659Z,29.97
2018-03-04T22:57:24.519Z,30.70
2018-03-04T22:59:53.428Z,29.60
2018-03-04T23:02:22.294Z,30.50
2018-03-04T23:04:51.153Z,28.70
2018-03-04T23:07:20.051Z,28.33
2018-03-04T23:09:48.906Z,30.10
2018-03-04T23:12:17.807Z,29.27
2018-03-04T23:14:46.680Z,32.27
2018-03-04T23:17:15.557Z,28.13
2018-03-04T23:19:44.435Z,28.23
2018-03-04T23:22:13.323Z,28.40
2018-03-04T23:24:42.249Z,32.30
2018-03-04T23:27:11.146Z,29.73
2018-03-04T23:29:40.006Z,27.10
2018-03-04T23:32:08.903Z,27.10
2018-03-04T23:34:37.762Z,29.40
2018-03-04T23:37:06.651Z,28.57
2018-03-04T23:39:35.563Z,28.97
2018-03-04T23:42:04.426Z,27.97
2018-03-04T23:44:33.294Z,29.13
2018-03-04T23:47:02.168Z,26.30
2018-03-04T23:49:31.042Z,27.57
2018-03-04T23:51:59.913Z,27.97
2018-03-04T23:54:28.816Z,31.70
2018-03-04T23:56:57.674Z,28.03
2018-03-04T23:59:26.544Z,30.23
